sensor_id;sensor_type;location;lat;lon;timestamp;pressure;altitude;pressure_sealevel;temperature;humidity
70103;BME280;57470;50.034;15.256;2023-07-28T04:47:19;98457.13;;;16.41;100.00
70103;BME280;57470;50.034;15.256;2023-07-28T04:49:44;98462.16;;;16.60;100.00
70103;BME280;57470;50.034;15.256;2023-07-28T04:52:11;98467.91;;;16.81;100.00
70103;BME280;57470;50.034;15.256;2023-07-28T04:54:36;98456.25;;;17.13;100.00
70103;BME280;57470;50.034;15.256;2023-07-28T04:57:01;98467.66;;;17.23;100.00
70103;BME280;57470;50.034;15.256;2023-07-28T04:59:27;98464.56;;;17.51;100.00
70103;BME280;57470;50.034;15.256;2023-07-28T05:01:52;98460.16;;;17.58;100.00
70103;BME280;57470;50.034;15.256;2023-07-28T05:04:17;98467.34;;;17.74;100.00
70103;BME280;57470;50.034;15.256;2023-07-28T05:06:44;98465.28;;;17.84;100.00
70103;BME280;57470;50.034;15.256;2023-07-28T05:09:09;98469.28;;;17.96;100.00
70103;BME280;57470;50.034;15.256;2023-07-28T05:11:35;98462.81;;;18.05;100.00
70103;BME280;57470;50.034;15.256;2023-07-28T05:14:00;98475.91;;;18.08;100.00
70103;BME280;57470;50.034;15.256;2023-07-28T05:16:26;98478.31;;;18.34;100.00
70103;BME280;57470;50.034;15.256;2023-07-28T05:18:51;98471.25;;;18.02;100.00
70103;BME280;57470;50.034;15.256;2023-07-28T05:21:16;98479.75;;;18.14;100.00
70103;BME280;57470;50.034;15.256;2023-07-28T05:23:42;98477.97;;;18.29;100.00
70103;BME280;57470;50.034;15.256;2023-07-28T05:26:08;98483.91;;;18.24;100.00
70103;BME280;57470;50.034;15.256;2023-07-28T05:28:34;98472.59;;;18.29;100.00
70103;BME280;57470;50.034;15.256;2023-07-28T05:31:06;98479.44;;;18.40;100.00
70103;BME280;57470;50.034;15.256;2023-07-28T05:33:31;98482.63;;;18.35;100.00
70103;BME280;57470;50.034;15.256;2023-07-28T05:36:03;98490.31;;;18.46;100.00
70103;BME280;57470;50.034;15.256;2023-07-28T05:38:29;98496.63;;;18.61;100.00
70103;BME280;57470;50.034;15.256;2023-07-28T05:40:59;98491.25;;;18.53;100.00
70103;BME280;57470;50.034;15.256;2023-07-28T05:43:29;98500.00;;;18.55;100.00
70103;BME280;57470;50.034;15.256;2023-07-28T05:45:55;98500.66;;;18.34;100.00
70103;BME280;57470;50.034;15.256;2023-07-28T05:48:21;98502.75;;;18.47;100.00
70103;BME280;57470;50.034;15.256;2023-07-28T05:50:46;98501.13;;;18.69;100.00
70103;BME280;57470;50.034;15.256;2023-07-28T05:53:12;98507.94;;;18.57;100.00
70103;BME280;57470;50.034;15.256;2023-07-28T05:55:39;98506.78;;;18.51;100.00
70103;BME280;57470;50.034;15.256;2023-07-28T05:58:04;98504.94;;;18.74;100.00
70103;BME280;57470;50.034;15.256;2023-07-28T06:00:30;98500.41;;;18.44;100.00
70103;BME280;57470;50.034;15.256;2023-07-28T06:02:55;98503.41;;;18.57;100.00
70103;BME280;57470;50.034;15.256;2023-07-28T06:05:21;98510.28;;;18.83;100.00
70103;BME280;57470;50.034;15.256;2023-07-28T06:07:46;98512.69;;;18.78;100.00
70103;BME280;57470;50.034;15.256;2023-07-28T06:10:12;98517.00;;;18.87;100.00
70103;BME280;57470;50.034;15.256;2023-07-28T06:12:37;98515.75;;;18.89;100.00
70103;BME280;57470;50.034;15.256;2023-07-28T06:15:02;98524.47;;;18.77;100.00
70103;BME280;57470;50.034;15.256;2023-07-28T06:17:28;98521.28;;;18.96;100.00
70103;BME280;57470;50.034;15.256;2023-07-28T06:19:54;98528.16;;;18.98;100.00
70103;BME280;57470;50.034;15.256;2023-07-28T06:22:20;98526.13;;;19.00;100.00
70103;BME280;57470;50.034;15.256;2023-07-28T06:24:45;98531.03;;;18.97;100.00
70103;BME280;57470;50.034;15.256;2023-07-28T06:27:10;98528.28;;;19.05;100.00
70103;BME280;57470;50.034;15.256;2023-07-28T06:29:36;98529.50;;;19.17;100.00
70103;BME280;57470;50.034;15.256;2023-07-28T06:32:01;98523.44;;;19.15;100.00
70103;BME280;57470;50.034;15.256;2023-07-28T06:34:27;98523.09;;;19.18;100.00
70103;BME280;57470;50.034;15.256;2023-07-28T06:36:52;98528.31;;;19.34;100.00
70103;BME280;57470;50.034;15.256;2023-07-28T06:39:18;98522.44;;;19.16;100.00
70103;BME280;57470;50.034;15.256;2023-07-28T06:41:43;98511.03;;;19.43;100.00
70103;BME280;57470;50.034;15.256;2023-07-28T06:44:09;98511.66;;;19.54;100.00
70103;BME280;57470;50.034;15.256;2023-07-28T06:46:35;98511.47;;;19.18;100.00
70103;BME280;57470;50.034;15.256;2023-07-28T06:49:00;98518.97;;;19.45;100.00
70103;BME280;57470;50.034;15.256;2023-07-28T06:51:25;98527.69;;;19.32;100.00
70103;BME280;57470;50.034;15.256;2023-07-28T06:53:51;98519.56;;;19.70;100.00
70103;BME280;57470;50.034;15.256;2023-07-28T06:56:17;98515.94;;;19.63;100.00
70103;BME280;57470;50.034;15.256;2023-07-28T06:58:42;98522.25;;;19.99;100.00
70103;BME280;57470;50.034;15.256;2023-07-28T07:01:08;98526.16;;;19.97;100.00
70103;BME280;57470;50.034;15.256;2023-07-28T07:03:39;98522.41;;;19.98;99.70
70103;BME280;57470;50.034;15.256;2023-07-28T07:06:04;98522.38;;;20.27;98.65
70103;BME280;57470;50.034;15.256;2023-07-28T07:08:29;98522.84;;;20.31;98.56
70103;BME280;57470;50.034;15.256;2023-07-28T07:10:55;98524.63;;;20.23;98.51
70103;BME280;57470;50.034;15.256;2023-07-28T07:13:20;98523.88;;;20.30;98.34
70103;BME280;57470;50.034;15.256;2023-07-28T07:15:46;98526.44;;;20.02;99.08
70103;BME280;57470;50.034;15.256;2023-07-28T07:18:11;98527.41;;;20.45;98.50
70103;BME280;57470;50.034;15.256;2023-07-28T07:20:37;98524.94;;;20.50;98.85
70103;BME280;57470;50.034;15.256;2023-07-28T07:23:04;98521.69;;;20.54;97.95
70103;BME280;57470;50.034;15.256;2023-07-28T07:25:30;98517.09;;;20.76;97.42
70103;BME280;57470;50.034;15.256;2023-07-28T07:27:55;98517.38;;;20.81;97.56
70103;BME280;57470;50.034;15.256;2023-07-28T07:30:21;98527.28;;;20.95;95.37
70103;BME280;57470;50.034;15.256;2023-07-28T07:32:46;98530.34;;;21.14;96.25
70103;BME280;57470;50.034;15.256;2023-07-28T07:35:11;98532.69;;;21.17;96.20
70103;BME280;57470;50.034;15.256;2023-07-28T07:37:38;98532.03;;;21.36;95.16
70103;BME280;57470;50.034;15.256;2023-07-28T07:40:04;98535.00;;;21.48;93.86
70103;BME280;57470;50.034;15.256;2023-07-28T07:42:41;98534.25;;;21.54;94.31
70103;BME280;57470;50.034;15.256;2023-07-28T07:45:09;98542.44;;;21.67;93.78
70103;BME280;57470;50.034;15.256;2023-07-28T07:47:34;98538.97;;;21.80;92.05
70103;BME280;57470;50.034;15.256;2023-07-28T07:50:00;98528.91;;;22.01;91.55
70103;BME280;57470;50.034;15.256;2023-07-28T07:52:25;98531.47;;;22.10;90.24
70103;BME280;57470;50.034;15.256;2023-07-28T07:54:51;98536.75;;;21.90;91.99
70103;BME280;57470;50.034;15.256;2023-07-28T07:57:16;98534.19;;;22.10;90.19
70103;BME280;57470;50.034;15.256;2023-07-28T07:59:42;98544.41;;;22.21;89.90
70103;BME280;57470;50.034;15.256;2023-07-28T08:02:08;98540.88;;;22.20;89.20
70103;BME280;57470;50.034;15.256;2023-07-28T08:04:33;98544.97;;;22.64;89.48
70103;BME280;57470;50.034;15.256;2023-07-28T08:06:59;98553.13;;;22.64;89.20
70103;BME280;57470;50.034;15.256;2023-07-28T08:09:24;98555.69;;;22.24;89.87
70103;BME280;57470;50.034;15.256;2023-07-28T08:11:49;98558.03;;;22.27;88.96
70103;BME280;57470;50.034;15.256;2023-07-28T08:14:15;98573.28;;;22.48;88.09
70103;BME280;57470;50.034;15.256;2023-07-28T08:16:40;98574.16;;;22.55;89.76
70103;BME280;57470;50.034;15.256;2023-07-28T08:19:06;98573.91;;;22.43;88.09
70103;BME280;57470;50.034;15.256;2023-07-28T08:21:31;98579.19;;;22.65;87.42
70103;BME280;57470;50.034;15.256;2023-07-28T08:24:02;98581.97;;;22.30;88.17
70103;BME280;57470;50.034;15.256;2023-07-28T08:26:29;98593.81;;;22.23;87.98
70103;BME280;57470;50.034;15.256;2023-07-28T08:28:55;98587.03;;;22.46;87.77
70103;BME280;57470;50.034;15.256;2023-07-28T08:31:20;98592.16;;;22.28;88.12
70103;BME280;57470;50.034;15.256;2023-07-28T08:33:46;98583.19;;;21.93;87.81
70103;BME280;57470;50.034;15.256;2023-07-28T08:36:11;98585.66;;;22.10;88.10
70103;BME280;57470;50.034;15.256;2023-07-28T08:38:37;98585.97;;;22.34;87.86
70103;BME280;57470;50.034;15.256;2023-07-28T08:41:03;98576.25;;;21.78;90.32
70103;BME280;57470;50.034;15.256;2023-07-28T08:43:30;98574.38;;;22.06;89.50
70103;BME280;57470;50.034;15.256;2023-07-28T08:45:56;98574.94;;;22.36;88.04
70103;BME280;57470;50.034;15.256;2023-07-28T08:48:23;98575.88;;;22.15;88.62
70103;BME280;57470;50.034;15.256;2023-07-28T08:50:49;98580.00;;;22.11;88.96
70103;BME280;57470;50.034;15.256;2023-07-28T08:53:14;98573.31;;;22.00;89.78
70103;BME280;57470;50.034;15.256;2023-07-28T08:55:40;98575.09;;;22.75;86.88
70103;BME280;57470;50.034;15.256;2023-07-28T08:58:16;98581.00;;;22.99;86.30
70103;BME280;57470;50.034;15.256;2023-07-28T09:00:41;98577.31;;;22.59;86.25
70103;BME280;57470;50.034;15.256;2023-07-28T09:03:10;98575.31;;;22.80;86.03
70103;BME280;57470;50.034;15.256;2023-07-28T09:05:36;98584.56;;;23.39;85.24
70103;BME280;57470;50.034;15.256;2023-07-28T09:08:03;98577.44;;;23.11;83.73
70103;BME280;57470;50.034;15.256;2023-07-28T09:10:44;98565.88;;;22.63;85.29
70103;BME280;57470;50.034;15.256;2023-07-28T09:13:11;98578.72;;;23.22;84.91
70103;BME280;57470;50.034;15.256;2023-07-28T09:15:37;98578.31;;;23.25;84.09
70103;BME280;57470;50.034;15.256;2023-07-28T09:18:03;98583.31;;;23.08;83.89
70103;BME280;57470;50.034;15.256;2023-07-28T09:20:35;98581.41;;;23.02;83.45
70103;BME280;57470;50.034;15.256;2023-07-28T09:23:02;98587.47;;;23.04;83.64
70103;BME280;57470;50.034;15.256;2023-07-28T09:25:28;98590.59;;;23.28;82.67
70103;BME280;57470;50.034;15.256;2023-07-28T09:27:54;98584.16;;;23.48;83.53
70103;BME280;57470;50.034;15.256;2023-07-28T09:30:21;98591.25;;;23.16;83.31
70103;BME280;57470;50.034;15.256;2023-07-28T09:32:51;98589.13;;;22.99;83.56
70103;BME280;57470;50.034;15.256;2023-07-28T09:35:18;98587.03;;;22.46;84.83
70103;BME280;57470;50.034;15.256;2023-07-28T09:37:49;98587.41;;;22.91;82.44
70103;BME280;57470;50.034;15.256;2023-07-28T09:40:20;98592.00;;;22.91;83.29
70103;BME280;57470;50.034;15.256;2023-07-28T09:42:47;98589.53;;;23.09;81.54
70103;BME280;57470;50.034;15.256;2023-07-28T09:45:17;98583.09;;;23.36;81.23
70103;BME280;57470;50.034;15.256;2023-07-28T09:47:45;98577.69;;;23.16;80.85
70103;BME280;57470;50.034;15.256;2023-07-28T09:50:14;98574.03;;;22.76;81.59
70103;BME280;57470;50.034;15.256;2023-07-28T09:52:49;98572.66;;;23.27;80.54
70103;BME280;57470;50.034;15.256;2023-07-28T09:55:15;98575.16;;;23.22;79.89
70103;BME280;57470;50.034;15.256;2023-07-28T09:57:52;98579.13;;;23.39;80.85
70103;BME280;57470;50.034;15.256;2023-07-28T10:00:19;98580.16;;;23.44;80.95
70103;BME280;57470;50.034;15.256;2023-07-28T10:02:46;98587.50;;;23.24;81.55
70103;BME280;57470;50.034;15.256;2023-07-28T10:05:11;98585.81;;;23.30;81.54
70103;BME280;57470;50.034;15.256;2023-07-28T10:07:42;98577.81;;;22.82;83.00
70103;BME280;57470;50.034;15.256;2023-07-28T10:10:11;98570.97;;;23.19;82.35
70103;BME280;57470;50.034;15.256;2023-07-28T10:12:48;98573.31;;;23.68;80.95
70103;BME280;57470;50.034;15.256;2023-07-28T10:15:19;98574.31;;;23.93;79.99
70103;BME280;57470;50.034;15.256;2023-07-28T10:17:51;98571.66;;;23.61;79.89
70103;BME280;57470;50.034;15.256;2023-07-28T10:20:30;98574.56;;;23.33;81.05
70103;BME280;57470;50.034;15.256;2023-07-28T10:23:12;98577.66;;;22.90;81.71
70103;BME280;57470;50.034;15.256;2023-07-28T10:25:39;98585.75;;;22.83;81.67
70103;BME280;57470;50.034;15.256;2023-07-28T10:28:06;98584.25;;;22.74;82.65
70103;BME280;57470;50.034;15.256;2023-07-28T10:30:51;98592.84;;;22.85;83.00
70103;BME280;57470;50.034;15.256;2023-07-28T10:33:46;98584.34;;;23.07;81.74
70103;BME280;57470;50.034;15.256;2023-07-28T10:36:32;98584.56;;;23.39;81.29
70103;BME280;57470;50.034;15.256;2023-07-28T10:41:30;98586.88;;;23.55;81.12
70103;BME280;57470;50.034;15.256;2023-07-28T10:43:58;98590.84;;;23.33;81.60
70103;BME280;57470;50.034;15.256;2023-07-28T10:46:24;98598.56;;;23.62;80.43
70103;BME280;57470;50.034;15.256;2023-07-28T10:48:52;98603.34;;;23.47;81.21
70103;BME280;57470;50.034;15.256;2023-07-28T10:51:25;98599.19;;;23.84;80.28
70103;BME280;57470;50.034;15.256;2023-07-28T10:53:57;98588.78;;;23.61;79.45
70103;BME280;57470;50.034;15.256;2023-07-28T10:56:23;98600.44;;;23.94;80.12
70103;BME280;57470;50.034;15.256;2023-07-28T10:59:03;98596.28;;;23.85;78.99
70103;BME280;57470;50.034;15.256;2023-07-28T11:01:35;98605.22;;;23.92;79.58
70103;BME280;57470;50.034;15.256;2023-07-28T11:04:13;98597.53;;;23.63;79.99
70103;BME280;57470;50.034;15.256;2023-07-28T11:06:49;98597.09;;;23.86;80.25
70103;BME280;57470;50.034;15.256;2023-07-28T11:09:18;98598.78;;;23.67;80.06
70103;BME280;57470;50.034;15.256;2023-07-28T11:11:46;98596.03;;;23.93;79.87
70103;BME280;57470;50.034;15.256;2023-07-28T11:14:15;98605.44;;;23.91;79.21
70103;BME280;57470;50.034;15.256;2023-07-28T11:16:41;98590.03;;;23.78;79.26
70103;BME280;57470;50.034;15.256;2023-07-28T11:19:11;98590.41;;;23.95;78.49
70103;BME280;57470;50.034;15.256;2023-07-28T11:21:37;98587.59;;;24.41;78.18
70103;BME280;57470;50.034;15.256;2023-07-28T11:24:03;98580.63;;;24.90;76.69
70103;BME280;57470;50.034;15.256;2023-07-28T11:26:29;98575.19;;;25.28;76.19
70103;BME280;57470;50.034;15.256;2023-07-28T11:28:55;98579.16;;;25.00;77.17
70103;BME280;57470;50.034;15.256;2023-07-28T11:31:24;98584.25;;;25.15;76.86
70103;BME280;57470;50.034;15.256;2023-07-28T11:33:51;98580.16;;;25.06;76.36
70103;BME280;57470;50.034;15.256;2023-07-28T11:36:27;98578.97;;;24.95;75.95
70103;BME280;57470;50.034;15.256;2023-07-28T11:38:53;98584.41;;;24.95;75.71
70103;BME280;57470;50.034;15.256;2023-07-28T11:41:20;98580.81;;;25.01;76.25
70103;BME280;57470;50.034;15.256;2023-07-28T11:43:50;98577.13;;;24.83;76.08
70103;BME280;57470;50.034;15.256;2023-07-28T11:46:38;98580.84;;;25.26;75.29
70103;BME280;57470;50.034;15.256;2023-07-28T11:49:17;98585.34;;;25.14;74.88
70103;BME280;57470;50.034;15.256;2023-07-28T11:51:54;98571.38;;;25.85;73.27
70103;BME280;57470;50.034;15.256;2023-07-28T11:54:24;98571.88;;;26.37;72.05
70103;BME280;57470;50.034;15.256;2023-07-28T11:56:51;98567.25;;;26.67;70.90
70103;BME280;57470;50.034;15.256;2023-07-28T11:59:19;98574.72;;;26.90;71.26
70103;BME280;57470;50.034;15.256;2023-07-28T12:01:52;98566.13;;;26.93;70.10
70103;BME280;57470;50.034;15.256;2023-07-28T12:04:24;98572.47;;;26.39;68.10
70103;BME280;57470;50.034;15.256;2023-07-28T12:07:07;98575.09;;;26.64;68.28
70103;BME280;57470;50.034;15.256;2023-07-28T12:09:53;98577.63;;;26.47;68.27
70103;BME280;57470;50.034;15.256;2023-07-28T12:12:23;98580.38;;;26.04;69.06
70103;BME280;57470;50.034;15.256;2023-07-28T12:14:49;98582.72;;;25.82;70.61
70103;BME280;57470;50.034;15.256;2023-07-28T12:17:25;98578.75;;;25.78;70.64
70103;BME280;57470;50.034;15.256;2023-07-28T12:20:06;98574.03;;;25.92;71.52
70103;BME280;57470;50.034;15.256;2023-07-28T12:22:40;98572.19;;;26.29;71.16
70103;BME280;57470;50.034;15.256;2023-07-28T12:25:07;98564.34;;;26.50;68.37
70103;BME280;57470;50.034;15.256;2023-07-28T12:27:32;98570.59;;;26.69;68.09
70103;BME280;57470;50.034;15.256;2023-07-28T12:29:58;98573.97;;;26.53;67.31
70103;BME280;57470;50.034;15.256;2023-07-28T12:32:24;98570.63;;;26.14;67.83
70103;BME280;57470;50.034;15.256;2023-07-28T12:34:50;98578.47;;;25.86;68.13
70103;BME280;57470;50.034;15.256;2023-07-28T12:37:16;98579.09;;;26.25;66.72
70103;BME280;57470;50.034;15.256;2023-07-28T12:39:41;98575.88;;;27.01;65.72
70103;BME280;57470;50.034;15.256;2023-07-28T12:42:07;98578.28;;;26.90;66.05
70103;BME280;57470;50.034;15.256;2023-07-28T12:44:33;98579.25;;;27.26;64.45
70103;BME280;57470;50.034;15.256;2023-07-28T12:46:59;98574.63;;;27.38;65.82
70103;BME280;57470;50.034;15.256;2023-07-28T12:49:24;98568.03;;;26.93;66.49
70103;BME280;57470;50.034;15.256;2023-07-28T12:51:49;98579.53;;;27.36;65.81
70103;BME280;57470;50.034;15.256;2023-07-28T12:54:15;98576.72;;;27.13;64.88
70103;BME280;57470;50.034;15.256;2023-07-28T12:56:41;98582.84;;;27.26;65.67
70103;BME280;57470;50.034;15.256;2023-07-28T12:59:06;98582.94;;;27.20;65.01
70103;BME280;57470;50.034;15.256;2023-07-28T13:01:33;98580.50;;;27.00;65.07
70103;BME280;57470;50.034;15.256;2023-07-28T13:03:59;98578.88;;;27.11;65.17
70103;BME280;57470;50.034;15.256;2023-07-28T13:06:24;98572.41;;;27.35;65.18
70103;BME280;57470;50.034;15.256;2023-07-28T13:08:49;98588.47;;;27.13;65.30
70103;BME280;57470;50.034;15.256;2023-07-28T13:11:15;98587.13;;;27.34;63.99
70103;BME280;57470;50.034;15.256;2023-07-28T13:13:41;98575.53;;;27.85;66.24
70103;BME280;57470;50.034;15.256;2023-07-28T13:16:06;98593.38;;;27.99;64.00
70103;BME280;57470;50.034;15.256;2023-07-28T13:18:31;98587.75;;;28.41;61.58
70103;BME280;57470;50.034;15.256;2023-07-28T13:20:58;98578.03;;;28.45;62.87
70103;BME280;57470;50.034;15.256;2023-07-28T13:23:23;98583.97;;;28.19;61.97
70103;BME280;57470;50.034;15.256;2023-07-28T13:25:49;98587.91;;;28.74;61.96
70103;BME280;57470;50.034;15.256;2023-07-28T13:28:15;98589.72;;;28.17;60.34
70103;BME280;57470;50.034;15.256;2023-07-28T13:30:40;98586.72;;;28.07;60.82
70103;BME280;57470;50.034;15.256;2023-07-28T13:33:06;98588.50;;;27.90;60.93
70103;BME280;57470;50.034;15.256;2023-07-28T13:35:32;98590.38;;;28.13;61.26
70103;BME280;57470;50.034;15.256;2023-07-28T13:37:57;98578.50;;;28.42;60.49
70103;BME280;57470;50.034;15.256;2023-07-28T13:40:23;98579.44;;;28.76;61.65
70103;BME280;57470;50.034;15.256;2023-07-28T13:42:48;98582.84;;;28.55;62.30
70103;BME280;57470;50.034;15.256;2023-07-28T13:45:14;98584.91;;;28.88;61.70
70103;BME280;57470;50.034;15.256;2023-07-28T13:47:39;98587.03;;;28.97;59.68
70103;BME280;57470;50.034;15.256;2023-07-28T13:50:05;98592.44;;;28.69;59.42
70103;BME280;57470;50.034;15.256;2023-07-28T13:52:31;98577.91;;;29.08;58.70
70103;BME280;57470;50.034;15.256;2023-07-28T13:54:57;98589.78;;;28.86;60.78
70103;BME280;57470;50.034;15.256;2023-07-28T13:57:22;98580.34;;;28.93;61.00
70103;BME280;57470;50.034;15.256;2023-07-28T13:59:47;98571.28;;;29.21;60.05
70103;BME280;57470;50.034;15.256;2023-07-28T14:02:13;98583.41;;;29.70;59.67
70103;BME280;57470;50.034;15.256;2023-07-28T14:04:38;98575.94;;;28.92;60.10
70103;BME280;57470;50.034;15.256;2023-07-28T14:07:04;98579.56;;;29.55;59.59
70103;BME280;57470;50.034;15.256;2023-07-28T14:09:30;98573.50;;;29.86;59.09
70103;BME280;57470;50.034;15.256;2023-07-28T14:11:55;98571.25;;;29.50;59.95
70103;BME280;57470;50.034;15.256;2023-07-28T14:14:20;98571.00;;;27.44;62.73
70103;BME280;57470;50.034;15.256;2023-07-28T14:16:46;98562.16;;;29.16;59.59
70103;BME280;57470;50.034;15.256;2023-07-28T14:19:11;98569.94;;;29.69;58.90
70103;BME280;57470;50.034;15.256;2023-07-28T14:21:36;98565.50;;;29.84;57.84
70103;BME280;57470;50.034;15.256;2023-07-28T14:24:05;98563.53;;;29.97;58.90
70103;BME280;57470;50.034;15.256;2023-07-28T14:26:30;98569.13;;;29.06;60.38
70103;BME280;57470;50.034;15.256;2023-07-28T14:28:56;98577.50;;;29.78;58.29
70103;BME280;57470;50.034;15.256;2023-07-28T14:31:21;98570.94;;;30.18;57.80
70103;BME280;57470;50.034;15.256;2023-07-28T14:33:46;98567.44;;;30.44;58.15
70103;BME280;57470;50.034;15.256;2023-07-28T14:36:12;98563.75;;;30.12;56.91
70103;BME280;57470;50.034;15.256;2023-07-28T14:38:38;98574.50;;;29.97;57.82
70103;BME280;57470;50.034;15.256;2023-07-28T14:41:03;98580.72;;;30.31;57.47
70103;BME280;57470;50.034;15.256;2023-07-28T14:43:29;98570.56;;;28.69;61.07
70103;BME280;57470;50.034;15.256;2023-07-28T14:45:55;98575.31;;;29.64;57.80
70103;BME280;57470;50.034;15.256;2023-07-28T14:48:20;98574.22;;;29.31;59.41
70103;BME280;57470;50.034;15.256;2023-07-28T14:50:46;98583.84;;;28.14;61.22
70103;BME280;57470;50.034;15.256;2023-07-28T14:53:44;98579.88;;;28.96;59.22
70103;BME280;57470;50.034;15.256;2023-07-28T14:56:12;98578.03;;;28.45;60.07
70103;BME280;57470;50.034;15.256;2023-07-28T14:58:38;98575.78;;;29.27;58.89
70103;BME280;57470;50.034;15.256;2023-07-28T15:01:06;98577.50;;;28.60;59.04
70103;BME280;57470;50.034;15.256;2023-07-28T15:03:33;98587.91;;;28.86;58.97
70103;BME280;57470;50.034;15.256;2023-07-28T15:05:59;98588.63;;;29.27;58.14
70103;BME280;57470;50.034;15.256;2023-07-28T15:08:25;98589.16;;;29.24;60.00
70103;BME280;57470;50.034;15.256;2023-07-28T15:10:50;98592.78;;;29.13;59.12
70103;BME280;57470;50.034;15.256;2023-07-28T15:13:16;98592.28;;;29.16;58.49
70103;BME280;57470;50.034;15.256;2023-07-28T15:15:42;98602.97;;;28.37;60.65
70103;BME280;57470;50.034;15.256;2023-07-28T15:18:07;98586.34;;;28.38;60.63
70103;BME280;57470;50.034;15.256;2023-07-28T15:20:33;98592.09;;;28.65;58.90
70103;BME280;57470;50.034;15.256;2023-07-28T15:22:59;98586.88;;;29.04;58.67
70103;BME280;57470;50.034;15.256;2023-07-28T15:25:25;98593.97;;;29.33;58.93
70103;BME280;57470;50.034;15.256;2023-07-28T15:27:51;98590.78;;;29.87;58.16
70103;BME280;57470;50.034;15.256;2023-07-28T15:30:16;98581.97;;;30.01;56.62
70103;BME280;57470;50.034;15.256;2023-07-28T15:32:41;98576.91;;;28.98;57.97
70103;BME280;57470;50.034;15.256;2023-07-28T15:35:07;98588.88;;;30.04;57.77
70103;BME280;57470;50.034;15.256;2023-07-28T15:37:32;98586.19;;;29.92;57.09
70103;BME280;57470;50.034;15.256;2023-07-28T15:39:58;98584.06;;;29.77;56.62
70103;BME280;57470;50.034;15.256;2023-07-28T15:42:23;98586.13;;;29.70;56.86
70103;BME280;57470;50.034;15.256;2023-07-28T15:44:50;98581.09;;;29.34;56.29
70103;BME280;57470;50.034;15.256;2023-07-28T15:47:15;98586.88;;;29.49;56.81
70103;BME280;57470;50.034;15.256;2023-07-28T15:49:41;98590.03;;;28.84;57.93
70103;BME280;57470;50.034;15.256;2023-07-28T15:52:07;98590.38;;;28.01;60.12
70103;BME280;57470;50.034;15.256;2023-07-28T15:54:32;98594.22;;;28.00;59.81
70103;BME280;57470;50.034;15.256;2023-07-28T15:56:58;98594.53;;;28.38;59.09
70103;BME280;57470;50.034;15.256;2023-07-28T15:59:23;98595.19;;;28.69;58.05
70103;BME280;57470;50.034;15.256;2023-07-28T16:01:48;98595.38;;;28.39;59.55
70103;BME280;57470;50.034;15.256;2023-07-28T16:04:14;98597.13;;;28.57;58.44
70103;BME280;57470;50.034;15.256;2023-07-28T16:06:39;98598.53;;;28.99;58.92
70103;BME280;57470;50.034;15.256;2023-07-28T16:09:04;98593.84;;;29.40;57.55
70103;BME280;57470;50.034;15.256;2023-07-28T16:11:30;98592.84;;;29.63;57.18
70103;BME280;57470;50.034;15.256;2023-07-28T16:13:57;98588.78;;;29.65;57.79
70103;BME280;57470;50.034;15.256;2023-07-28T16:16:22;98584.78;;;29.39;57.98
70103;BME280;57470;50.034;15.256;2023-07-28T16:18:48;98580.59;;;30.20;56.57
70103;BME280;57470;50.034;15.256;2023-07-28T16:21:13;98583.22;;;30.32;55.66
70103;BME280;57470;50.034;15.256;2023-07-28T16:23:39;98581.16;;;29.67;56.28
70103;BME280;57470;50.034;15.256;2023-07-28T16:26:04;98586.09;;;29.37;56.13
70103;BME280;57470;50.034;15.256;2023-07-28T16:28:29;98585.34;;;28.96;56.29
70103;BME280;57470;50.034;15.256;2023-07-28T16:30:55;98594.63;;;28.55;57.62
70103;BME280;57470;50.034;15.256;2023-07-28T16:33:20;98585.03;;;28.41;58.18
70103;BME280;57470;50.034;15.256;2023-07-28T16:35:46;98598.94;;;27.93;58.96
70103;BME280;57470;50.034;15.256;2023-07-28T16:38:13;98600.97;;;27.86;58.67
70103;BME280;57470;50.034;15.256;2023-07-28T16:40:38;98597.53;;;28.14;59.33
70103;BME280;57470;50.034;15.256;2023-07-28T16:43:04;98598.72;;;28.06;59.92
70103;BME280;57470;50.034;15.256;2023-07-28T16:45:29;98591.81;;;27.92;59.39
70103;BME280;57470;50.034;15.256;2023-07-28T16:47:54;98591.69;;;28.10;59.91
70103;BME280;57470;50.034;15.256;2023-07-28T16:50:20;98595.28;;;27.99;59.40
70103;BME280;57470;50.034;15.256;2023-07-28T16:52:45;98596.22;;;27.70;60.53
70103;BME280;57470;50.034;15.256;2023-07-28T16:55:10;98596.69;;;27.78;59.57
70103;BME280;57470;50.034;15.256;2023-07-28T16:57:36;98594.94;;;27.72;59.85
70103;BME280;57470;50.034;15.256;2023-07-28T17:00:02;98600.97;;;27.62;60.50
70103;BME280;57470;50.034;15.256;2023-07-28T17:02:28;98602.34;;;27.53;59.76
70103;BME280;57470;50.034;15.256;2023-07-28T17:04:53;98607.09;;;27.46;60.28
70103;BME280;57470;50.034;15.256;2023-07-28T17:07:19;98596.59;;;27.32;60.81
70103;BME280;57470;50.034;15.256;2023-07-28T17:09:44;98597.09;;;27.40;60.82
70103;BME280;57470;50.034;15.256;2023-07-28T17:12:10;98606.66;;;27.61;60.34
70103;BME280;57470;50.034;15.256;2023-07-28T17:14:35;98607.16;;;27.93;59.97
70103;BME280;57470;50.034;15.256;2023-07-28T17:17:00;98600.13;;;27.09;62.50
70103;BME280;57470;50.034;15.256;2023-07-28T17:19:26;98608.00;;;27.40;61.68
70103;BME280;57470;50.034;15.256;2023-07-28T17:21:51;98610.38;;;27.25;62.66
70103;BME280;57470;50.034;15.256;2023-07-28T17:24:16;98607.34;;;27.15;62.55
70103;BME280;57470;50.034;15.256;2023-07-28T17:26:42;98604.19;;;27.18;62.25
70103;BME280;57470;50.034;15.256;2023-07-28T17:29:07;98612.78;;;26.85;62.66
70103;BME280;57470;50.034;15.256;2023-07-28T17:31:33;98619.53;;;27.01;63.30
70103;BME280;57470;50.034;15.256;2023-07-28T17:33:58;98625.47;;;26.98;62.61
70103;BME280;57470;50.034;15.256;2023-07-28T17:36:24;98627.47;;;26.36;64.05